Flight Track Log - Related Links

Times and Time Zones

All times are in EST time to prevent confusion due to time zone crossing. See the CPT1940 flight status page for this flight to view local times or setup timezone preferences in your user account.

Time Position Orientation Groundspeed Altitude Reporting Facility
EST Latitude Longitude Course Direction KTS MPH feet Rate Location/Type
Wed 03:32:20 PM 43.0242 -106.1631 135° Southeast 170 196 9,000  Level Denver Center
Wed 03:33:22 PM 43.0053 -106.1033 113° Southeast 175 201 8,900 48 Descending Denver Center
Wed 03:34:24 PM 42.9817 -106.0297 114° Southeast 184 212 9,100 48 Climbing Denver Center
Wed 03:35:26 PM 42.9625 -105.9689 113° Southeast 184 212 9,000  Descending Denver Center
Wed 03:36:00 PM 41.8740 -103.5956 135° Southeast  Level Estimated
Wed 03:36:28 PM 42.9411 -105.9014 113° Southeast 178 205 9,100  Level Denver Center
Wed 03:37:00 PM 41.8740 -103.5956 135° Southeast  Level Estimated
Wed 03:37:30 PM 42.9203 -105.8400 115° Southeast 181 208 9,000  Level Denver Center
Wed 03:38:31 PM 42.8986 -105.7689 113° Southeast 182 209 9,100  Climbing Denver Center
Wed 03:39:33 PM 42.8783 -105.7108 115° Southeast 180 207 9,000 -48 Descending Denver Center
Wed 03:40:35 PM 42.8575 -105.6447 113° Southeast 174 200 9,000  Level Denver Center
Wed 03:41:37 PM 42.8372 -105.5867 115° Southeast 175 201 9,000 -48 Level Denver Center
Wed 03:42:39 PM 42.8169 -105.5283 115° Southeast 177 204 8,900  Descending Denver Center
Wed 03:43:41 PM 42.7944 -105.4569 113° Southeast 181 208 9,000 49 Climbing Denver Center
Wed 03:44:42 PM 42.7756 -105.3947 112° Southeast 183 211 9,000  Level Denver Center
Wed 03:45:44 PM 42.7503 -105.3186 114° Southeast 192 221 9,000  Level Denver Center
Wed 03:46:46 PM 42.7292 -105.2561 115° Southeast 192 221 9,000  Level Denver Center
Wed 03:47:48 PM 42.7058 -105.1828 113° Southeast 190 219 9,000  Level Denver Center
Wed 03:48:50 PM 42.6861 -105.1247 115° Southeast 185 213 9,000  Level Denver Center
Wed 03:49:51 PM 42.6644 -105.0567 113° Southeast 179 206 9,000  Level Denver Center
Wed 03:50:53 PM 42.6442 -104.9989 115° Southeast 177 204 9,000  Level Denver Center
Wed 03:51:55 PM 42.6244 -104.9400 114° Southeast 178 205 9,000  Level Denver Center
Wed 03:52:57 PM 42.6031 -104.8742 114° Southeast 174 200 9,000  Level Denver Center
Wed 03:53:59 PM 42.5839 -104.8197 116° Southeast 171 197 9,000 48 Level Denver Center
Wed 03:55:01 PM 42.5633 -104.7561 114° Southeast 168 193 9,100 49 Climbing Denver Center
Wed 03:56:02 PM 42.5439 -104.6997 115° Southeast 170 196 9,100  Level Denver Center
Wed 03:57:04 PM 42.5203 -104.6308 115° Southeast 179 206 9,100 -48 Level Denver Center
Wed 03:58:06 PM 42.4933 -104.5803 126° Southeast 176 203 9,000 -97 Descending Denver Center
Wed 03:59:08 PM 42.4600 -104.5286 131° Southeast 169 194 8,900 -48 Descending Denver Center
Wed 04:00:10 PM 42.4328 -104.4850 130° Southeast 163 188 8,900 48 Level Denver Center
Wed 04:01:12 PM 42.4014 -104.4342 130° Southeast 159 183 9,000 98 Climbing Denver Center
Wed 04:02:13 PM 42.3744 -104.3908 130° Southeast 158 182 9,100  Climbing Denver Center
Wed 04:03:15 PM 42.3419 -104.3392 130° Southeast 160 184 9,000 -48 Descending Denver Center
Wed 04:04:17 PM 42.3153 -104.2942 129° Southeast 160 184 9,000  Level Denver Center
Wed 04:05:19 PM 42.2842 -104.2433 130° Southeast 159 183 9,000  Level Denver Center
Wed 04:06:21 PM 42.2561 -104.1992 131° Southeast 159 183 9,000  Level Denver Center
Wed 04:07:23 PM 42.2292 -104.1539 129° Southeast 161 185 9,000  Level Denver Center
Wed 04:08:24 PM 42.1964 -104.1019 130° Southeast 162 186 9,000 49 Level Denver Center
Wed 04:09:26 PM 42.1686 -104.0594 131° Southeast 160 184 9,100  Climbing Denver Center
Wed 04:10:28 PM 42.1353 -104.0094 132° Southeast 160 184 9,000 -194 Descending Denver Center
Wed 04:11:30 PM 42.1081 -103.9653 130° Southeast 160 184 8,700 -435 Descending Denver Center
Wed 04:12:32 PM 42.0767 -103.9106 128° Southeast 163 188 8,100 -581 Descending Denver Center

Login

Don't have an account? Register now (free) for customized features, flight alerts, and more!